sensor_id;sensor_type;location;lat;lon;timestamp;pressure;altitude;pressure_sealevel;temperature;humidity
70314;BME280;57725;47.526;18.986;2023-03-18T00:01:15;100311.16;;;7.31;92.40
70314;BME280;57725;47.526;18.986;2023-03-18T00:03:41;100309.41;;;7.31;92.41
70314;BME280;57725;47.526;18.986;2023-03-18T00:06:14;100299.00;;;7.31;92.38
70314;BME280;57725;47.526;18.986;2023-03-18T00:08:44;100296.44;;;7.30;92.16
70314;BME280;57725;47.526;18.986;2023-03-18T00:11:12;100297.34;;;7.28;92.05
70314;BME280;57725;47.526;18.986;2023-03-18T00:13:38;100294.69;;;7.30;92.19
70314;BME280;57725;47.526;18.986;2023-03-18T00:16:06;100292.13;;;7.28;92.43
70314;BME280;57725;47.526;18.986;2023-03-18T00:18:33;100283.47;;;7.28;92.25
70314;BME280;57725;47.526;18.986;2023-03-18T00:20:59;100286.13;;;7.26;92.08
70314;BME280;57725;47.526;18.986;2023-03-18T00:23:28;100286.13;;;7.26;92.10
70314;BME280;57725;47.526;18.986;2023-03-18T00:25:56;100284.34;;;7.27;92.42
70314;BME280;57725;47.526;18.986;2023-03-18T00:28:25;100288.72;;;7.26;92.32
70314;BME280;57725;47.526;18.986;2023-03-18T00:30:54;100286.13;;;7.26;92.05
70314;BME280;57725;47.526;18.986;2023-03-18T00:33:20;100292.22;;;7.25;92.06
70314;BME280;57725;47.526;18.986;2023-03-18T00:35:46;100277.53;;;7.23;92.19
70314;BME280;57725;47.526;18.986;2023-03-18T00:38:12;100286.16;;;7.25;92.31
70314;BME280;57725;47.526;18.986;2023-03-18T00:40:49;100276.69;;;7.22;92.65
70314;BME280;57725;47.526;18.986;2023-03-18T00:43:25;100281.91;;;7.21;92.01
70314;BME280;57725;47.526;18.986;2023-03-18T00:45:57;100280.16;;;7.21;92.22
70314;BME280;57725;47.526;18.986;2023-03-18T00:48:23;100272.44;;;7.18;92.29
70314;BME280;57725;47.526;18.986;2023-03-18T00:50:51;100279.31;;;7.21;92.36
70314;BME280;57725;47.526;18.986;2023-03-18T00:53:18;100276.75;;;7.19;92.47
70314;BME280;57725;47.526;18.986;2023-03-18T00:55:50;100271.53;;;7.19;92.12
70314;BME280;57725;47.526;18.986;2023-03-18T00:58:15;100276.75;;;7.19;92.39
70314;BME280;57725;47.526;18.986;2023-03-18T01:00:40;100269.81;;;7.18;92.45
70314;BME280;57725;47.526;18.986;2023-03-18T01:03:06;100269.84;;;7.17;92.29
70314;BME280;57725;47.526;18.986;2023-03-18T01:05:33;100262.94;;;7.16;91.98
70314;BME280;57725;47.526;18.986;2023-03-18T01:08:00;100263.81;;;7.16;92.42
70314;BME280;57725;47.526;18.986;2023-03-18T01:10:28;100264.69;;;7.15;92.45
70314;BME280;57725;47.526;18.986;2023-03-18T01:12:57;100258.66;;;7.15;92.45
70314;BME280;57725;47.526;18.986;2023-03-18T01:15:25;100254.28;;;7.15;92.12
70314;BME280;57725;47.526;18.986;2023-03-18T01:17:53;100256.94;;;7.14;92.32
70314;BME280;57725;47.526;18.986;2023-03-18T01:20:21;100252.63;;;7.13;92.35
70314;BME280;57725;47.526;18.986;2023-03-18T01:22:47;100249.19;;;7.12;92.31
70314;BME280;57725;47.526;18.986;2023-03-18T01:25:14;100250.03;;;7.13;92.16
70314;BME280;57725;47.526;18.986;2023-03-18T01:27:40;100244.88;;;7.11;92.43
70314;BME280;57725;47.526;18.986;2023-03-18T01:30:07;100241.41;;;7.11;92.39
70314;BME280;57725;47.526;18.986;2023-03-18T01:32:33;100236.22;;;7.11;92.54
70314;BME280;57725;47.526;18.986;2023-03-18T01:34:59;100236.25;;;7.09;92.38
70314;BME280;57725;47.526;18.986;2023-03-18T01:37:25;100235.34;;;7.10;92.20
70314;BME280;57725;47.526;18.986;2023-03-18T01:39:50;100232.78;;;7.09;92.18
70314;BME280;57725;47.526;18.986;2023-03-18T01:42:18;100236.25;;;7.09;92.58
70314;BME280;57725;47.526;18.986;2023-03-18T01:44:46;100231.94;;;7.08;92.09
70314;BME280;57725;47.526;18.986;2023-03-18T01:47:12;100227.63;;;7.07;92.53
70314;BME280;57725;47.526;18.986;2023-03-18T01:49:47;100233.66;;;7.08;92.11
70314;BME280;57725;47.526;18.986;2023-03-18T01:52:22;100219.00;;;7.05;92.34
70314;BME280;57725;47.526;18.986;2023-03-18T01:57:20;100225.06;;;7.04;92.49
70314;BME280;57725;47.526;18.986;2023-03-18T01:59:50;100224.19;;;7.05;92.49
70314;BME280;57725;47.526;18.986;2023-03-18T02:02:19;100228.53;;;7.05;92.16
70314;BME280;57725;47.526;18.986;2023-03-18T02:04:56;100226.00;;;7.03;92.53
70314;BME280;57725;47.526;18.986;2023-03-18T02:07:30;100219.94;;;7.03;92.29
70314;BME280;57725;47.526;18.986;2023-03-18T02:10:03;100219.97;;;7.01;92.22
70314;BME280;57725;47.526;18.986;2023-03-18T02:12:34;100217.38;;;7.01;92.52
70314;BME280;57725;47.526;18.986;2023-03-18T02:15:07;100218.28;;;6.99;92.24
70314;BME280;57725;47.526;18.986;2023-03-18T02:17:39;100215.66;;;7.00;92.41
70314;BME280;57725;47.526;18.986;2023-03-18T02:22:35;100216.53;;;6.99;92.18
70314;BME280;57725;47.526;18.986;2023-03-18T02:27:50;100211.38;;;6.98;92.61
70314;BME280;57725;47.526;18.986;2023-03-18T02:30:21;100210.56;;;6.96;92.45
70314;BME280;57725;47.526;18.986;2023-03-18T02:32:49;100214.00;;;6.96;92.71
70314;BME280;57725;47.526;18.986;2023-03-18T02:35:18;100215.78;;;6.94;92.37
70314;BME280;57725;47.526;18.986;2023-03-18T02:37:46;100222.69;;;6.95;92.30
70314;BME280;57725;47.526;18.986;2023-03-18T02:40:17;100217.53;;;6.94;92.30
70314;BME280;57725;47.526;18.986;2023-03-18T02:42:44;100214.13;;;6.92;92.19
70314;BME280;57725;47.526;18.986;2023-03-18T02:45:37;100226.22;;;6.93;92.58
70314;BME280;57725;47.526;18.986;2023-03-18T02:48:06;100222.78;;;6.92;92.61
70314;BME280;57725;47.526;18.986;2023-03-18T02:50:33;100227.13;;;6.92;92.63
70314;BME280;57725;47.526;18.986;2023-03-18T02:53:01;100222.84;;;6.89;92.37
70314;BME280;57725;47.526;18.986;2023-03-18T02:55:26;100229.72;;;6.92;92.64
70314;BME280;57725;47.526;18.986;2023-03-18T02:57:52;100224.56;;;6.90;92.53
70314;BME280;57725;47.526;18.986;2023-03-18T03:00:20;100228.91;;;6.89;92.49
70314;BME280;57725;47.526;18.986;2023-03-18T03:02:45;100228.91;;;6.89;92.62
70314;BME280;57725;47.526;18.986;2023-03-18T03:05:11;100222.91;;;6.86;92.55
70314;BME280;57725;47.526;18.986;2023-03-18T03:07:38;100216.81;;;6.87;92.89
70314;BME280;57725;47.526;18.986;2023-03-18T03:10:07;100217.72;;;6.86;92.43
70314;BME280;57725;47.526;18.986;2023-03-18T03:12:33;100217.72;;;6.84;92.47
70314;BME280;57725;47.526;18.986;2023-03-18T03:15:01;100217.72;;;6.86;92.37
70314;BME280;57725;47.526;18.986;2023-03-18T03:17:26;100224.66;;;6.85;92.63
70314;BME280;57725;47.526;18.986;2023-03-18T03:19:54;100222.94;;;6.84;92.26
70314;BME280;57725;47.526;18.986;2023-03-18T03:22:20;100224.69;;;6.84;92.16
70314;BME280;57725;47.526;18.986;2023-03-18T03:24:46;100225.56;;;6.83;92.62
70314;BME280;57725;47.526;18.986;2023-03-18T03:27:11;100233.31;;;6.84;92.60
70314;BME280;57725;47.526;18.986;2023-03-18T03:29:37;100230.75;;;6.83;92.32
70314;BME280;57725;47.526;18.986;2023-03-18T03:32:05;100233.38;;;6.81;92.63
70314;BME280;57725;47.526;18.986;2023-03-18T03:34:33;100235.13;;;6.81;92.44
70314;BME280;57725;47.526;18.986;2023-03-18T03:37:01;100239.44;;;6.82;92.14
70314;BME280;57725;47.526;18.986;2023-03-18T03:39:26;100240.31;;;6.81;92.44
70314;BME280;57725;47.526;18.986;2023-03-18T03:41:54;100243.84;;;6.80;92.61
70314;BME280;57725;47.526;18.986;2023-03-18T03:44:21;100247.31;;;6.79;92.21
70314;BME280;57725;47.526;18.986;2023-03-18T03:46:46;100242.16;;;6.77;92.18
70314;BME280;57725;47.526;18.986;2023-03-18T03:49:12;100248.22;;;6.78;92.56
70314;BME280;57725;47.526;18.986;2023-03-18T03:51:38;100244.75;;;6.77;92.61
70314;BME280;57725;47.526;18.986;2023-03-18T03:54:03;100244.75;;;6.77;92.72
70314;BME280;57725;47.526;18.986;2023-03-18T03:56:28;100245.66;;;6.75;92.52
70314;BME280;57725;47.526;18.986;2023-03-18T03:58:55;100248.28;;;6.75;92.58
70314;BME280;57725;47.526;18.986;2023-03-18T04:01:21;100247.41;;;6.74;92.81
70314;BME280;57725;47.526;18.986;2023-03-18T04:03:48;100243.97;;;6.74;92.21
70314;BME280;57725;47.526;18.986;2023-03-18T04:06:14;100251.75;;;6.74;92.30
70314;BME280;57725;47.526;18.986;2023-03-18T04:08:45;100246.59;;;6.72;92.37
70314;BME280;57725;47.526;18.986;2023-03-18T04:11:13;100251.78;;;6.72;92.24
70314;BME280;57725;47.526;18.986;2023-03-18T04:13:39;100253.53;;;6.72;92.60
70314;BME280;57725;47.526;18.986;2023-03-18T04:16:05;100249.22;;;6.71;92.49
70314;BME280;57725;47.526;18.986;2023-03-18T04:18:34;100252.66;;;6.71;92.65
70314;BME280;57725;47.526;18.986;2023-03-18T04:20:59;100253.56;;;6.70;92.46
70314;BME280;57725;47.526;18.986;2023-03-18T04:23:25;100257.03;;;6.69;92.23
70314;BME280;57725;47.526;18.986;2023-03-18T04:25:52;100254.44;;;6.69;92.21
70314;BME280;57725;47.526;18.986;2023-03-18T04:28:18;100251.03;;;6.67;92.13
70314;BME280;57725;47.526;18.986;2023-03-18T04:30:43;100250.19;;;6.67;92.12
70314;BME280;57725;47.526;18.986;2023-03-18T04:33:09;100250.16;;;6.68;92.76
70314;BME280;57725;47.526;18.986;2023-03-18T04:35:36;100257.13;;;6.66;92.76
70314;BME280;57725;47.526;18.986;2023-03-18T04:38:02;100253.66;;;6.66;92.64
70314;BME280;57725;47.526;18.986;2023-03-18T04:40:28;100260.56;;;6.67;92.67
70314;BME280;57725;47.526;18.986;2023-03-18T04:42:54;100259.75;;;6.65;92.61
70314;BME280;57725;47.526;18.986;2023-03-18T04:45:22;100259.75;;;6.65;92.22
70314;BME280;57725;47.526;18.986;2023-03-18T04:47:47;100257.19;;;6.63;92.53
70314;BME280;57725;47.526;18.986;2023-03-18T04:50:13;100264.13;;;6.63;92.43
70314;BME280;57725;47.526;18.986;2023-03-18T04:52:40;100264.13;;;6.63;92.29
70314;BME280;57725;47.526;18.986;2023-03-18T04:55:08;100271.03;;;6.62;92.25
70314;BME280;57725;47.526;18.986;2023-03-18T04:57:35;100278.84;;;6.62;92.82
70314;BME280;57725;47.526;18.986;2023-03-18T05:00:06;100270.19;;;6.62;92.40
70314;BME280;57725;47.526;18.986;2023-03-18T05:02:34;100267.63;;;6.60;92.67
70314;BME280;57725;47.526;18.986;2023-03-18T05:05:02;100275.44;;;6.59;92.23
70314;BME280;57725;47.526;18.986;2023-03-18T05:07:27;100272.00;;;6.58;92.56
70314;BME280;57725;47.526;18.986;2023-03-18T05:09:55;100272.91;;;6.57;92.70
70314;BME280;57725;47.526;18.986;2023-03-18T05:12:20;100284.09;;;6.59;92.44
70314;BME280;57725;47.526;18.986;2023-03-18T05:14:46;100278.97;;;6.56;92.73
70314;BME280;57725;47.526;18.986;2023-03-18T05:17:12;100282.44;;;6.57;92.22
70314;BME280;57725;47.526;18.986;2023-03-18T05:19:45;100285.03;;;6.57;92.54
70314;BME280;57725;47.526;18.986;2023-03-18T05:22:15;100284.19;;;6.54;92.32
70314;BME280;57725;47.526;18.986;2023-03-18T05:24:41;100289.38;;;6.56;92.19
70314;BME280;57725;47.526;18.986;2023-03-18T05:27:08;100292.84;;;6.55;92.36
70314;BME280;57725;47.526;18.986;2023-03-18T05:29:35;100281.59;;;6.54;92.58
70314;BME280;57725;47.526;18.986;2023-03-18T05:32:03;100288.53;;;6.54;92.23
70314;BME280;57725;47.526;18.986;2023-03-18T05:34:32;100299.81;;;6.53;92.73
70314;BME280;57725;47.526;18.986;2023-03-18T05:36:59;100299.81;;;6.53;92.60
70314;BME280;57725;47.526;18.986;2023-03-18T05:39:26;100303.28;;;6.52;92.16
70314;BME280;57725;47.526;18.986;2023-03-18T05:41:51;100305.03;;;6.51;92.33
70314;BME280;57725;47.526;18.986;2023-03-18T05:44:19;100301.59;;;6.49;92.51
70314;BME280;57725;47.526;18.986;2023-03-18T05:46:44;100304.19;;;6.51;92.34
70314;BME280;57725;47.526;18.986;2023-03-18T05:49:10;100314.56;;;6.51;92.17
70314;BME280;57725;47.526;18.986;2023-03-18T05:51:35;100300.72;;;6.50;92.77
70314;BME280;57725;47.526;18.986;2023-03-18T05:54:02;100305.06;;;6.50;92.19
70314;BME280;57725;47.526;18.986;2023-03-18T05:56:29;100308.53;;;6.49;92.73
70314;BME280;57725;47.526;18.986;2023-03-18T05:58:55;100304.19;;;6.49;92.55
70314;BME280;57725;47.526;18.986;2023-03-18T06:01:21;100307.66;;;6.50;92.03
70314;BME280;57725;47.526;18.986;2023-03-18T06:03:49;100305.06;;;6.50;92.71
70314;BME280;57725;47.526;18.986;2023-03-18T06:06:17;100310.25;;;6.50;92.16
70314;BME280;57725;47.526;18.986;2023-03-18T06:08:46;100310.25;;;6.50;92.60
70314;BME280;57725;47.526;18.986;2023-03-18T06:11:12;100305.91;;;6.50;92.80
70314;BME280;57725;47.526;18.986;2023-03-18T06:13:40;100315.44;;;6.50;92.36
70314;BME280;57725;47.526;18.986;2023-03-18T06:16:11;100314.63;;;6.48;92.57
70314;BME280;57725;47.526;18.986;2023-03-18T06:18:37;100322.38;;;6.49;92.69
70314;BME280;57725;47.526;18.986;2023-03-18T06:21:03;100316.34;;;6.49;93.18
70314;BME280;57725;47.526;18.986;2023-03-18T06:23:29;100319.78;;;6.49;92.90
70314;BME280;57725;47.526;18.986;2023-03-18T06:25:54;100316.34;;;6.49;93.03
70314;BME280;57725;47.526;18.986;2023-03-18T06:28:20;100308.53;;;6.49;92.61
70314;BME280;57725;47.526;18.986;2023-03-18T06:30:45;100319.81;;;6.48;92.88
70314;BME280;57725;47.526;18.986;2023-03-18T06:33:11;100313.75;;;6.47;93.22
70314;BME280;57725;47.526;18.986;2023-03-18T06:35:37;100324.97;;;6.49;92.71
70314;BME280;57725;47.526;18.986;2023-03-18T06:38:02;100324.97;;;6.49;93.01
70314;BME280;57725;47.526;18.986;2023-03-18T06:40:28;100331.06;;;6.48;93.09
70314;BME280;57725;47.526;18.986;2023-03-18T06:42:53;100331.94;;;6.47;93.26
70314;BME280;57725;47.526;18.986;2023-03-18T06:45:23;100328.50;;;6.47;93.19
70314;BME280;57725;47.526;18.986;2023-03-18T06:47:51;100335.41;;;6.46;93.41
70314;BME280;57725;47.526;18.986;2023-03-18T06:50:17;100338.00;;;6.48;93.61
70314;BME280;57725;47.526;18.986;2023-03-18T06:52:45;100331.16;;;6.45;93.37
70314;BME280;57725;47.526;18.986;2023-03-18T06:55:10;100342.31;;;6.49;93.52
70314;BME280;57725;47.526;18.986;2023-03-18T06:57:36;100342.31;;;6.49;93.04
70314;BME280;57725;47.526;18.986;2023-03-18T07:00:02;100337.19;;;6.46;93.58
70314;BME280;57725;47.526;18.986;2023-03-18T07:02:29;100333.66;;;6.48;93.37
70314;BME280;57725;47.526;18.986;2023-03-18T07:04:54;100338.81;;;6.50;93.81
70314;BME280;57725;47.526;18.986;2023-03-18T07:07:20;100339.69;;;6.50;93.89
70314;BME280;57725;47.526;18.986;2023-03-18T07:09:48;100337.09;;;6.50;93.69
70314;BME280;57725;47.526;18.986;2023-03-18T07:12:14;100344.00;;;6.51;93.65
70314;BME280;57725;47.526;18.986;2023-03-18T07:14:44;100341.41;;;6.51;93.59
70314;BME280;57725;47.526;18.986;2023-03-18T07:17:12;100340.53;;;6.52;93.85
70314;BME280;57725;47.526;18.986;2023-03-18T07:19:38;100333.59;;;6.53;93.86
70314;BME280;57725;47.526;18.986;2023-03-18T07:22:04;100343.09;;;6.54;93.71
70314;BME280;57725;47.526;18.986;2023-03-18T07:24:29;100347.44;;;6.53;93.68
70314;BME280;57725;47.526;18.986;2023-03-18T07:26:55;100344.84;;;6.53;93.48
70314;BME280;57725;47.526;18.986;2023-03-18T07:29:25;100343.09;;;6.54;94.12
70314;BME280;57725;47.526;18.986;2023-03-18T07:31:53;100340.50;;;6.54;94.03
70314;BME280;57725;47.526;18.986;2023-03-18T07:34:19;100342.22;;;6.53;94.23
70314;BME280;57725;47.526;18.986;2023-03-18T07:36:45;100338.75;;;6.54;93.95
70314;BME280;57725;47.526;18.986;2023-03-18T07:39:11;100337.00;;;6.55;93.85
70314;BME280;57725;47.526;18.986;2023-03-18T07:41:36;100343.09;;;6.54;93.75
70314;BME280;57725;47.526;18.986;2023-03-18T07:44:02;100347.44;;;6.53;94.26
70314;BME280;57725;47.526;18.986;2023-03-18T07:46:28;100360.41;;;6.55;93.81
70314;BME280;57725;47.526;18.986;2023-03-18T07:48:55;100357.78;;;6.55;93.93
70314;BME280;57725;47.526;18.986;2023-03-18T07:51:21;100356.94;;;6.54;94.12
70314;BME280;57725;47.526;18.986;2023-03-18T07:53:46;100364.72;;;6.54;94.22
70314;BME280;57725;47.526;18.986;2023-03-18T07:56:12;100359.53;;;6.54;94.16
70314;BME280;57725;47.526;18.986;2023-03-18T07:58:37;100363.00;;;6.55;94.24
70314;BME280;57725;47.526;18.986;2023-03-18T08:01:03;100363.00;;;6.55;94.30
70314;BME280;57725;47.526;18.986;2023-03-18T08:03:29;100364.72;;;6.54;93.82
70314;BME280;57725;47.526;18.986;2023-03-18T08:05:57;100363.00;;;6.55;94.10
70314;BME280;57725;47.526;18.986;2023-03-18T08:08:23;100363.84;;;6.56;93.98
70314;BME280;57725;47.526;18.986;2023-03-18T08:10:49;100361.25;;;6.56;93.99
70314;BME280;57725;47.526;18.986;2023-03-18T08:13:20;100353.47;;;6.56;94.30
70314;BME280;57725;47.526;18.986;2023-03-18T08:15:46;100359.53;;;6.54;94.10
70314;BME280;57725;47.526;18.986;2023-03-18T08:18:12;100363.84;;;6.56;93.92
70314;BME280;57725;47.526;18.986;2023-03-18T08:20:37;100357.78;;;6.55;94.08
70314;BME280;57725;47.526;18.986;2023-03-18T08:23:03;100358.66;;;6.56;94.09
70314;BME280;57725;47.526;18.986;2023-03-18T08:25:29;100355.22;;;6.53;93.91
70314;BME280;57725;47.526;18.986;2023-03-18T08:27:54;100354.31;;;6.56;94.03
70314;BME280;57725;47.526;18.986;2023-03-18T08:30:20;100348.28;;;6.54;93.93
70314;BME280;57725;47.526;18.986;2023-03-18T08:32:59;100363.84;;;6.56;94.18
70314;BME280;57725;47.526;18.986;2023-03-18T08:35:27;100350.00;;;6.55;94.13
70314;BME280;57725;47.526;18.986;2023-03-18T08:37:53;100346.53;;;6.56;94.49
70314;BME280;57725;47.526;18.986;2023-03-18T08:40:19;100349.13;;;6.56;93.73
70314;BME280;57725;47.526;18.986;2023-03-18T08:42:47;100349.97;;;6.57;94.35
70314;BME280;57725;47.526;18.986;2023-03-18T08:45:13;100342.19;;;6.57;94.47
70314;BME280;57725;47.526;18.986;2023-03-18T08:47:39;100345.69;;;6.54;94.10
70314;BME280;57725;47.526;18.986;2023-03-18T08:50:05;100344.78;;;6.57;94.35
70314;BME280;57725;47.526;18.986;2023-03-18T08:52:33;100342.19;;;6.57;93.87
70314;BME280;57725;47.526;18.986;2023-03-18T08:54:59;100339.63;;;6.55;93.78
70314;BME280;57725;47.526;18.986;2023-03-18T08:57:27;100342.19;;;6.57;93.76
70314;BME280;57725;47.526;18.986;2023-03-18T08:59:53;100343.91;;;6.58;94.09
70314;BME280;57725;47.526;18.986;2023-03-18T09:02:25;100349.09;;;6.58;93.79
70314;BME280;57725;47.526;18.986;2023-03-18T09:04:52;100337.84;;;6.57;94.13
70314;BME280;57725;47.526;18.986;2023-03-18T09:07:18;100346.44;;;6.59;94.27
70314;BME280;57725;47.526;18.986;2023-03-18T09:09:45;100334.38;;;6.57;94.00
70314;BME280;57725;47.526;18.986;2023-03-18T09:12:13;100333.44;;;6.61;94.02
70314;BME280;57725;47.526;18.986;2023-03-18T09:14:40;100331.69;;;6.61;93.93
70314;BME280;57725;47.526;18.986;2023-03-18T09:17:09;100329.94;;;6.62;94.00
70314;BME280;57725;47.526;18.986;2023-03-18T09:19:37;100336.88;;;6.61;94.33
70314;BME280;57725;47.526;18.986;2023-03-18T09:22:03;100328.22;;;6.61;93.89
70314;BME280;57725;47.526;18.986;2023-03-18T09:24:28;100321.28;;;6.61;94.31
70314;BME280;57725;47.526;18.986;2023-03-18T09:26:53;100319.56;;;6.62;94.18
70314;BME280;57725;47.526;18.986;2023-03-18T09:29:19;100318.66;;;6.63;93.96
70314;BME280;57725;47.526;18.986;2023-03-18T09:31:44;100315.19;;;6.64;94.23
70314;BME280;57725;47.526;18.986;2023-03-18T09:34:10;100312.59;;;6.64;93.99
70314;BME280;57725;47.526;18.986;2023-03-18T09:36:38;100316.94;;;6.63;94.08
70314;BME280;57725;47.526;18.986;2023-03-18T09:39:03;100314.31;;;6.65;93.99
70314;BME280;57725;47.526;18.986;2023-03-18T09:41:42;100321.22;;;6.66;94.10
70314;BME280;57725;47.526;18.986;2023-03-18T09:44:20;100315.16;;;6.65;94.21
70314;BME280;57725;47.526;18.986;2023-03-18T09:47:14;100314.28;;;6.66;94.08
70314;BME280;57725;47.526;18.986;2023-03-18T09:49:54;100316.84;;;6.68;94.01
70314;BME280;57725;47.526;18.986;2023-03-18T09:55:24;100313.41;;;6.67;94.12
70314;BME280;57725;47.526;18.986;2023-03-18T09:57:54;100310.78;;;6.69;93.76
70314;BME280;57725;47.526;18.986;2023-03-18T10:00:33;100311.59;;;6.69;93.70
70314;BME280;57725;47.526;18.986;2023-03-18T10:03:05;100303.78;;;6.71;94.19
70314;BME280;57725;47.526;18.986;2023-03-18T10:05:49;100303.78;;;6.71;94.02
70314;BME280;57725;47.526;18.986;2023-03-18T10:11:02;100296.91;;;6.68;93.82
70314;BME280;57725;47.526;18.986;2023-03-18T10:13:46;100301.16;;;6.72;94.17
70314;BME280;57725;47.526;18.986;2023-03-18T10:16:21;100282.97;;;6.72;93.68
70314;BME280;57725;47.526;18.986;2023-03-18T10:18:51;100288.13;;;6.74;93.95
70314;BME280;57725;47.526;18.986;2023-03-18T10:21:30;100290.69;;;6.75;93.81
70314;BME280;57725;47.526;18.986;2023-03-18T10:26:58;100285.50;;;6.75;94.12
70314;BME280;57725;47.526;18.986;2023-03-18T10:29:47;100288.94;;;6.77;94.08
70314;BME280;57725;47.526;18.986;2023-03-18T10:41:16;100278.50;;;6.79;94.08
70314;BME280;57725;47.526;18.986;2023-03-18T10:43:52;100281.09;;;6.80;94.03
70314;BME280;57725;47.526;18.986;2023-03-18T10:46:20;100279.31;;;6.81;94.00
70314;BME280;57725;47.526;18.986;2023-03-18T10:48:47;100276.72;;;6.81;93.80
70314;BME280;57725;47.526;18.986;2023-03-18T10:51:42;100278.41;;;6.82;94.31
70314;BME280;57725;47.526;18.986;2023-03-18T10:56:53;100268.03;;;6.82;93.73
70314;BME280;57725;47.526;18.986;2023-03-18T10:59:27;100273.16;;;6.85;94.11
70314;BME280;57725;47.526;18.986;2023-03-18T11:02:10;100261.88;;;6.86;93.47
70314;BME280;57725;47.526;18.986;2023-03-18T11:04:51;100258.47;;;6.84;93.75
70314;BME280;57725;47.526;18.986;2023-03-18T11:07:23;100260.97;;;6.88;94.17
70314;BME280;57725;47.526;18.986;2023-03-18T11:09:50;100261.81;;;6.90;94.04
70314;BME280;57725;47.526;18.986;2023-03-18T11:12:22;100259.19;;;6.90;93.91
70314;BME280;57725;47.526;18.986;2023-03-18T11:14:48;100244.47;;;6.91;93.62
70314;BME280;57725;47.526;18.986;2023-03-18T11:17:37;100241.81;;;6.93;93.58
70314;BME280;57725;47.526;18.986;2023-03-18T11:20:19;100239.19;;;6.93;93.63
70314;BME280;57725;47.526;18.986;2023-03-18T11:22:52;100237.47;;;6.93;93.76
70314;BME280;57725;47.526;18.986;2023-03-18T11:25:23;100234.84;;;6.95;93.83
70314;BME280;57725;47.526;18.986;2023-03-18T11:28:03;100224.41;;;6.96;93.74
70314;BME280;57725;47.526;18.986;2023-03-18T11:30:34;100220.06;;;6.97;93.89
70314;BME280;57725;47.526;18.986;2023-03-18T11:35:45;100226.94;;;6.99;93.58
70314;BME280;57725;47.526;18.986;2023-03-18T11:38:29;100212.25;;;6.98;93.78
70314;BME280;57725;47.526;18.986;2023-03-18T11:41:26;100210.44;;;7.02;93.35
70314;BME280;57725;47.526;18.986;2023-03-18T11:44:10;100207.84;;;7.02;93.70
70314;BME280;57725;47.526;18.986;2023-03-18T11:46:49;100206.06;;;7.04;93.69
70314;BME280;57725;47.526;18.986;2023-03-18T11:49:21;100196.59;;;7.00;93.54
70314;BME280;57725;47.526;18.986;2023-03-18T12:19:10;100175.50;;;7.13;93.53
70314;BME280;57725;47.526;18.986;2023-03-18T12:21:59;100181.53;;;7.14;93.30
70314;BME280;57725;47.526;18.986;2023-03-18T12:24:38;100178.06;;;7.15;93.50
70314;BME280;57725;47.526;18.986;2023-03-18T12:27:18;100168.47;;;7.15;93.52
70314;BME280;57725;47.526;18.986;2023-03-18T12:45:56;100176.13;;;7.23;93.09
70314;BME280;57725;47.526;18.986;2023-03-18T12:48:34;100174.41;;;7.22;93.05
70314;BME280;57725;47.526;18.986;2023-03-18T12:51:13;100169.19;;;7.23;93.09
70314;BME280;57725;47.526;18.986;2023-03-18T12:53:42;100173.44;;;7.26;92.96
70314;BME280;57725;47.526;18.986;2023-03-18T12:56:16;100172.53;;;7.27;93.14
70314;BME280;57725;47.526;18.986;2023-03-18T12:58:45;100165.59;;;7.27;93.13
70314;BME280;57725;47.526;18.986;2023-03-18T13:01:21;100171.66;;;7.28;93.13
70314;BME280;57725;47.526;18.986;2023-03-18T13:03:55;100165.56;;;7.29;93.12
70314;BME280;57725;47.526;18.986;2023-03-18T13:06:41;100169.00;;;7.30;92.92
70314;BME280;57725;47.526;18.986;2023-03-18T13:12:01;100161.16;;;7.31;93.09
70314;BME280;57725;47.526;18.986;2023-03-18T13:14:35;100165.47;;;7.32;93.11
70314;BME280;57725;47.526;18.986;2023-03-18T13:17:15;100160.28;;;7.32;93.02
70314;BME280;57725;47.526;18.986;2023-03-18T13:19:46;100166.31;;;7.34;92.92
70314;BME280;57725;47.526;18.986;2023-03-18T13:33:10;100160.19;;;7.37;93.05
70314;BME280;57725;47.526;18.986;2023-03-18T13:43:27;100138.41;;;7.39;92.94
70314;BME280;57725;47.526;18.986;2023-03-18T13:45:55;100142.75;;;7.39;92.85
70314;BME280;57725;47.526;18.986;2023-03-18T13:48:34;100153.13;;;7.40;93.25
70314;BME280;57725;47.526;18.986;2023-03-18T13:51:39;100140.09;;;7.42;93.08
70314;BME280;57725;47.526;18.986;2023-03-18T13:54:03;100140.09;;;7.42;92.94
70314;BME280;57725;47.526;18.986;2023-03-18T13:59:05;100139.91;;;7.49;87.63
70314;BME280;57725;47.526;18.986;2023-03-18T14:01:51;100132.00;;;7.85;79.08
70314;BME280;57725;47.526;18.986;2023-03-18T14:04:31;100130.41;;;8.10;74.88
70314;BME280;57725;47.526;18.986;2023-03-18T14:07:13;100123.91;;;8.25;72.45
70314;BME280;57725;47.526;18.986;2023-03-18T14:22:47;100098.50;;;8.89;64.77
70314;BME280;57725;47.526;18.986;2023-03-18T14:33:01;100098.56;;;8.87;67.48
70314;BME280;57725;47.526;18.986;2023-03-18T14:35:45;100086.13;;;8.95;67.45
70314;BME280;57725;47.526;18.986;2023-03-18T14:40:47;100090.66;;;11.84;60.38
70314;BME280;57725;47.526;18.986;2023-03-18T14:43:34;100065.34;;;14.61;43.76
70314;BME280;57725;47.526;18.986;2023-03-18T14:46:07;100070.56;;;15.66;40.50
70314;BME280;57725;47.526;18.986;2023-03-18T14:48:41;100059.91;;;16.24;38.40
70314;BME280;57725;47.526;18.986;2023-03-18T14:51:14;100057.25;;;16.80;37.19
70314;BME280;57725;47.526;18.986;2023-03-18T14:56:34;100051.06;;;16.25;38.15
70314;BME280;57725;47.526;18.986;2023-03-18T14:59:02;100057.59;;;15.47;39.51
70314;BME280;57725;47.526;18.986;2023-03-18T15:01:39;100056.00;;;15.01;39.75
70314;BME280;57725;47.526;18.986;2023-03-18T15:04:09;100051.56;;;14.71;41.00
70314;BME280;57725;47.526;18.986;2023-03-18T15:06:40;100052.41;;;14.56;41.19